sensor_id;sensor_type;location;lat;lon;timestamp;pressure;altitude;pressure_sealevel;temperature;humidity
62038;BME280;47991;42.974;12.082;2023-04-21T06:44:49;97379.38;;;24.11;39.35
62038;BME280;47991;42.974;12.082;2023-04-21T06:47:16;97383.83;;;24.18;40.65
62038;BME280;47991;42.974;12.082;2023-04-21T06:49:43;97385.72;;;23.64;41.27
62038;BME280;47991;42.974;12.082;2023-04-21T06:52:09;97384.59;;;23.39;41.40
62038;BME280;47991;42.974;12.082;2023-04-21T06:54:37;97386.55;;;22.84;42.05
62038;BME280;47991;42.974;12.082;2023-04-21T06:57:03;97388.64;;;22.40;43.79
62038;BME280;47991;42.974;12.082;2023-04-21T06:59:30;97391.32;;;21.93;43.15
62038;BME280;47991;42.974;12.082;2023-04-21T07:01:57;97389.68;;;21.80;44.16
62038;BME280;47991;42.974;12.082;2023-04-21T07:04:24;97393.67;;;21.77;44.46
62038;BME280;47991;42.974;12.082;2023-04-21T07:06:55;97394.41;;;20.89;45.81
62038;BME280;47991;42.974;12.082;2023-04-21T07:09:22;97390.50;;;20.08;47.44
62038;BME280;47991;42.974;12.082;2023-04-21T07:11:49;97395.12;;;19.04;50.23
62038;BME280;47991;42.974;12.082;2023-04-21T07:14:15;97396.56;;;18.20;53.19
62038;BME280;47991;42.974;12.082;2023-04-21T07:16:42;97398.00;;;17.98;51.74
62038;BME280;47991;42.974;12.082;2023-04-21T07:19:09;97397.31;;;18.28;50.95
62038;BME280;47991;42.974;12.082;2023-04-21T07:21:36;97399.06;;;18.37;51.48
62038;BME280;47991;42.974;12.082;2023-04-21T07:24:03;97399.15;;;18.05;53.01
62038;BME280;47991;42.974;12.082;2023-04-21T07:26:31;97398.40;;;18.11;51.80
62038;BME280;47991;42.974;12.082;2023-04-21T07:28:58;97399.42;;;18.11;51.14
62038;BME280;47991;42.974;12.082;2023-04-21T07:31:25;97402.81;;;18.06;52.13
62038;BME280;47991;42.974;12.082;2023-04-21T07:33:52;97406.80;;;17.80;51.63
62038;BME280;47991;42.974;12.082;2023-04-21T07:36:19;97406.56;;;17.98;50.96
62038;BME280;47991;42.974;12.082;2023-04-21T07:38:45;97405.31;;;18.06;51.50
62038;BME280;47991;42.974;12.082;2023-04-21T07:41:12;97405.63;;;18.04;51.30
62038;BME280;47991;42.974;12.082;2023-04-21T07:43:39;97408.46;;;17.73;52.12
62038;BME280;47991;42.974;12.082;2023-04-21T07:46:06;97415.50;;;17.81;51.14
62038;BME280;47991;42.974;12.082;2023-04-21T07:48:33;97414.95;;;17.93;51.29
62038;BME280;47991;42.974;12.082;2023-04-21T07:51:00;97411.39;;;18.06;51.44
62038;BME280;47991;42.974;12.082;2023-04-21T07:53:29;97411.86;;;18.07;51.66
62038;BME280;47991;42.974;12.082;2023-04-21T07:56:06;97417.05;;;17.73;54.09
62038;BME280;47991;42.974;12.082;2023-04-21T07:58:37;97414.17;;;17.91;52.74
62038;BME280;47991;42.974;12.082;2023-04-21T08:01:04;97417.77;;;17.56;55.27
62038;BME280;47991;42.974;12.082;2023-04-21T08:03:34;97421.58;;;17.23;56.20
62038;BME280;47991;42.974;12.082;2023-04-21T08:06:10;97419.16;;;16.89;56.93
62038;BME280;47991;42.974;12.082;2023-04-21T08:08:37;97418.09;;;16.39;58.98
62038;BME280;47991;42.974;12.082;2023-04-21T08:11:04;97415.15;;;16.28;60.48
62038;BME280;47991;42.974;12.082;2023-04-21T08:13:32;97416.81;;;16.36;60.20
62038;BME280;47991;42.974;12.082;2023-04-21T08:15:59;97416.45;;;16.46;58.36
62038;BME280;47991;42.974;12.082;2023-04-21T08:18:26;97417.59;;;16.51;57.87
62038;BME280;47991;42.974;12.082;2023-04-21T08:20:53;97417.38;;;16.14;59.63
62038;BME280;47991;42.974;12.082;2023-04-21T08:23:26;97417.54;;;16.36;58.92
62038;BME280;47991;42.974;12.082;2023-04-21T08:25:56;97417.33;;;16.27;58.43
62038;BME280;47991;42.974;12.082;2023-04-21T08:28:25;97418.17;;;16.38;58.57
62038;BME280;47991;42.974;12.082;2023-04-21T08:30:53;97420.59;;;16.30;59.01
62038;BME280;47991;42.974;12.082;2023-04-21T08:33:20;97417.13;;;16.31;60.84
62038;BME280;47991;42.974;12.082;2023-04-21T08:35:46;97412.39;;;16.60;60.36
62038;BME280;47991;42.974;12.082;2023-04-21T08:38:13;97418.90;;;16.78;60.32
62038;BME280;47991;42.974;12.082;2023-04-21T08:40:40;97418.34;;;16.69;60.44
62038;BME280;47991;42.974;12.082;2023-04-21T08:43:08;97414.30;;;16.55;60.34
62038;BME280;47991;42.974;12.082;2023-04-21T10:28:18;97363.52;;;20.77;45.09
62038;BME280;47991;42.974;12.082;2023-04-21T10:37:28;97364.88;;;20.42;43.54
62038;BME280;47991;42.974;12.082;2023-04-21T10:39:31;97362.45;;;20.74;43.34
62038;BME280;47991;42.974;12.082;2023-04-21T10:42:17;97361.02;;;21.05;41.65
62038;BME280;47991;42.974;12.082;2023-04-21T10:50:28;97344.91;;;22.08;41.64
62038;BME280;47991;42.974;12.082;2023-04-21T10:53:11;97349.39;;;21.55;42.53
62038;BME280;47991;42.974;12.082;2023-04-21T10:55:38;97350.72;;;20.94;42.87
62038;BME280;47991;42.974;12.082;2023-04-21T10:58:07;97345.98;;;20.76;42.32
62038;BME280;47991;42.974;12.082;2023-04-21T11:00:37;97345.02;;;21.00;42.62
62038;BME280;47991;42.974;12.082;2023-04-21T11:03:06;97339.19;;;21.65;41.13
62038;BME280;47991;42.974;12.082;2023-04-21T11:05:35;97333.61;;;21.86;39.48
62038;BME280;47991;42.974;12.082;2023-04-21T11:08:09;97331.49;;;22.30;42.15
62038;BME280;47991;42.974;12.082;2023-04-21T11:10:51;97330.88;;;22.71;40.90
62038;BME280;47991;42.974;12.082;2023-04-21T11:13:23;97325.88;;;22.69;42.03
62038;BME280;47991;42.974;12.082;2023-04-21T11:15:58;97323.66;;;22.31;41.92
62038;BME280;47991;42.974;12.082;2023-04-21T11:18:45;97323.41;;;21.87;42.05
62038;BME280;47991;42.974;12.082;2023-04-21T11:21:14;97328.62;;;21.49;43.61
62038;BME280;47991;42.974;12.082;2023-04-21T11:23:53;97328.68;;;21.11;43.50
62038;BME280;47991;42.974;12.082;2023-04-21T11:26:34;97325.63;;;20.86;44.72
62038;BME280;47991;42.974;12.082;2023-04-21T11:29:04;97325.16;;;20.71;44.61
62038;BME280;47991;42.974;12.082;2023-04-21T11:31:32;97327.45;;;20.60;44.49
62038;BME280;47991;42.974;12.082;2023-04-21T11:34:00;97330.88;;;20.50;43.51
62038;BME280;47991;42.974;12.082;2023-04-21T11:36:26;97328.25;;;20.37;43.96
62038;BME280;47991;42.974;12.082;2023-04-21T11:38:54;97327.02;;;20.31;44.63
62038;BME280;47991;42.974;12.082;2023-04-21T11:41:22;97326.25;;;20.32;44.42
62038;BME280;47991;42.974;12.082;2023-04-21T11:43:50;97322.27;;;20.30;44.91
62038;BME280;47991;42.974;12.082;2023-04-21T11:48:44;97317.68;;;20.15;44.27
62038;BME280;47991;42.974;12.082;2023-04-21T11:51:17;97320.08;;;20.07;44.36
62038;BME280;47991;42.974;12.082;2023-04-21T11:53:46;97317.31;;;20.17;44.31
62038;BME280;47991;42.974;12.082;2023-04-21T11:56:17;97316.71;;;20.26;43.42
62038;BME280;47991;42.974;12.082;2023-04-21T11:58:45;97315.36;;;20.44;43.31
62038;BME280;47991;42.974;12.082;2023-04-21T12:01:14;97314.12;;;20.93;43.30
62038;BME280;47991;42.974;12.082;2023-04-21T12:03:41;97312.66;;;21.37;41.88
62038;BME280;47991;42.974;12.082;2023-04-21T12:06:25;97316.14;;;21.41;42.19
62038;BME280;47991;42.974;12.082;2023-04-21T12:09:01;97319.42;;;21.33;40.69
62038;BME280;47991;42.974;12.082;2023-04-21T12:11:30;97319.26;;;21.22;41.71
62038;BME280;47991;42.974;12.082;2023-04-21T12:13:57;97315.20;;;21.14;42.21
62038;BME280;47991;42.974;12.082;2023-04-21T12:16:25;97318.41;;;21.00;41.01
62038;BME280;47991;42.974;12.082;2023-04-21T12:18:55;97314.55;;;20.71;41.18
62038;BME280;47991;42.974;12.082;2023-04-21T12:21:28;97315.48;;;20.63;43.16
62038;BME280;47991;42.974;12.082;2023-04-21T12:23:56;97316.90;;;20.56;44.92
62038;BME280;47991;42.974;12.082;2023-04-21T12:26:22;97315.29;;;20.49;44.24
62038;BME280;47991;42.974;12.082;2023-04-21T12:28:50;97315.65;;;20.45;44.46
62038;BME280;47991;42.974;12.082;2023-04-21T12:31:17;97313.02;;;20.41;44.65
62038;BME280;47991;42.974;12.082;2023-04-21T12:33:44;97311.62;;;20.33;44.65
62038;BME280;47991;42.974;12.082;2023-04-21T12:36:11;97312.00;;;20.28;44.55
62038;BME280;47991;42.974;12.082;2023-04-21T12:38:38;97311.73;;;20.23;44.62
62038;BME280;47991;42.974;12.082;2023-04-21T12:41:04;97317.04;;;20.16;44.73
62038;BME280;47991;42.974;12.082;2023-04-21T12:43:31;97312.63;;;20.06;45.11
62038;BME280;47991;42.974;12.082;2023-04-21T12:45:58;97307.53;;;20.02;45.68
62038;BME280;47991;42.974;12.082;2023-04-21T12:48:25;97310.45;;;19.96;45.79
62038;BME280;47991;42.974;12.082;2023-04-21T12:50:52;97308.14;;;19.91;46.26
62038;BME280;47991;42.974;12.082;2023-04-21T12:53:18;97306.95;;;19.88;46.96
62038;BME280;47991;42.974;12.082;2023-04-21T12:55:45;97298.65;;;19.86;47.09
62038;BME280;47991;42.974;12.082;2023-04-21T12:58:12;97301.89;;;20.05;46.51
62038;BME280;47991;42.974;12.082;2023-04-21T13:00:40;97300.86;;;20.40;45.58
62038;BME280;47991;42.974;12.082;2023-04-21T13:03:08;97301.16;;;20.53;43.68
62038;BME280;47991;42.974;12.082;2023-04-21T13:05:35;97298.64;;;20.73;43.66
62038;BME280;47991;42.974;12.082;2023-04-21T13:08:01;97287.70;;;20.91;42.42
62038;BME280;47991;42.974;12.082;2023-04-21T13:10:28;97286.77;;;20.87;42.34
62038;BME280;47991;42.974;12.082;2023-04-21T13:12:55;97283.66;;;20.73;41.97
62038;BME280;47991;42.974;12.082;2023-04-21T13:15:21;97282.27;;;20.51;42.38
62038;BME280;47991;42.974;12.082;2023-04-21T13:17:48;97281.02;;;20.08;42.93
62038;BME280;47991;42.974;12.082;2023-04-21T13:20:16;97282.34;;;20.12;42.90
62038;BME280;47991;42.974;12.082;2023-04-21T13:22:44;97285.80;;;20.45;44.46
62038;BME280;47991;42.974;12.082;2023-04-21T13:25:11;97282.84;;;20.58;42.86
62038;BME280;47991;42.974;12.082;2023-04-21T13:27:38;97283.60;;;20.65;43.53
62038;BME280;47991;42.974;12.082;2023-04-21T13:30:10;97288.06;;;20.65;41.97
62038;BME280;47991;42.974;12.082;2023-04-21T13:32:38;97285.06;;;20.79;43.40
62038;BME280;47991;42.974;12.082;2023-04-21T13:35:06;97280.50;;;20.89;42.53
62038;BME280;47991;42.974;12.082;2023-04-21T13:37:37;97276.85;;;21.08;40.28
62038;BME280;47991;42.974;12.082;2023-04-21T13:40:06;97280.52;;;21.18;39.94
62038;BME280;47991;42.974;12.082;2023-04-21T13:42:34;97278.37;;;20.93;39.56
62038;BME280;47991;42.974;12.082;2023-04-21T13:45:02;97275.50;;;20.88;40.92
62038;BME280;47991;42.974;12.082;2023-04-21T13:47:33;97273.98;;;20.75;39.88
62038;BME280;47991;42.974;12.082;2023-04-21T13:49:59;97278.52;;;20.61;41.43
62038;BME280;47991;42.974;12.082;2023-04-21T13:52:26;97282.36;;;20.81;40.95
62038;BME280;47991;42.974;12.082;2023-04-21T13:54:53;97281.58;;;21.16;41.17
62038;BME280;47991;42.974;12.082;2023-04-21T13:57:23;97273.48;;;21.64;41.06
62038;BME280;47991;42.974;12.082;2023-04-21T13:59:51;97265.55;;;21.77;37.64
62038;BME280;47991;42.974;12.082;2023-04-21T14:02:19;97265.24;;;21.55;38.34
62038;BME280;47991;42.974;12.082;2023-04-21T14:04:51;97271.92;;;21.22;37.84
62038;BME280;47991;42.974;12.082;2023-04-21T14:07:21;97269.35;;;20.98;38.19
62038;BME280;47991;42.974;12.082;2023-04-21T14:09:49;97267.52;;;21.10;38.70
62038;BME280;47991;42.974;12.082;2023-04-21T14:12:17;97273.67;;;21.17;39.62
62038;BME280;47991;42.974;12.082;2023-04-21T14:14:53;97270.69;;;21.06;37.73
62038;BME280;47991;42.974;12.082;2023-04-21T14:17:20;97272.67;;;20.97;37.99
62038;BME280;47991;42.974;12.082;2023-04-21T14:19:49;97269.89;;;21.07;37.61
62038;BME280;47991;42.974;12.082;2023-04-21T14:24:41;97266.73;;;21.52;37.38
62038;BME280;47991;42.974;12.082;2023-04-21T14:27:07;97267.13;;;21.69;36.68
62038;BME280;47991;42.974;12.082;2023-04-21T14:29:37;97265.21;;;21.73;35.96
62038;BME280;47991;42.974;12.082;2023-04-21T14:32:04;97267.90;;;21.90;37.22
62038;BME280;47991;42.974;12.082;2023-04-21T14:34:34;97261.84;;;22.03;37.45
62038;BME280;47991;42.974;12.082;2023-04-21T14:37:01;97268.40;;;22.04;36.48
62038;BME280;47991;42.974;12.082;2023-04-21T14:39:28;97267.11;;;21.89;36.90
62038;BME280;47991;42.974;12.082;2023-04-21T14:41:55;97269.48;;;21.69;35.65
62038;BME280;47991;42.974;12.082;2023-04-21T14:44:22;97267.90;;;21.73;36.74
62038;BME280;47991;42.974;12.082;2023-04-21T14:46:48;97271.73;;;21.99;36.79
62038;BME280;47991;42.974;12.082;2023-04-21T14:49:15;97275.09;;;21.95;35.19
62038;BME280;47991;42.974;12.082;2023-04-21T14:51:42;97277.67;;;21.94;35.80
62038;BME280;47991;42.974;12.082;2023-04-21T14:54:14;97277.61;;;22.21;36.89
62038;BME280;47991;42.974;12.082;2023-04-21T14:56:42;97280.75;;;22.49;36.69
62038;BME280;47991;42.974;12.082;2023-04-21T14:59:11;97281.65;;;22.59;37.44
62038;BME280;47991;42.974;12.082;2023-04-21T15:01:38;97277.20;;;22.44;36.65
62038;BME280;47991;42.974;12.082;2023-04-21T15:04:05;97279.54;;;22.44;37.17
62038;BME280;47991;42.974;12.082;2023-04-21T15:06:32;97278.89;;;22.45;36.80
62038;BME280;47991;42.974;12.082;2023-04-21T15:08:58;97283.21;;;22.66;37.17
62038;BME280;47991;42.974;12.082;2023-04-21T15:11:28;97280.11;;;22.52;35.96
62038;BME280;47991;42.974;12.082;2023-04-21T15:13:55;97282.16;;;21.99;35.43
62038;BME280;47991;42.974;12.082;2023-04-21T15:16:22;97285.92;;;21.79;37.07
62038;BME280;47991;42.974;12.082;2023-04-21T15:18:49;97286.42;;;21.68;37.32
62038;BME280;47991;42.974;12.082;2023-04-21T15:21:18;97289.03;;;21.78;36.73
62038;BME280;47991;42.974;12.082;2023-04-21T15:23:49;97288.69;;;21.92;37.09
62038;BME280;47991;42.974;12.082;2023-04-21T15:26:15;97284.84;;;21.95;36.16
62038;BME280;47991;42.974;12.082;2023-04-21T15:28:42;97283.92;;;21.86;36.57
62038;BME280;47991;42.974;12.082;2023-04-21T15:31:09;97284.67;;;21.94;37.34
62038;BME280;47991;42.974;12.082;2023-04-21T15:33:36;97284.45;;;21.99;36.35
62038;BME280;47991;42.974;12.082;2023-04-21T15:36:03;97285.42;;;22.12;36.06
62038;BME280;47991;42.974;12.082;2023-04-21T15:38:30;97283.08;;;22.16;35.85
62038;BME280;47991;42.974;12.082;2023-04-21T15:40:57;97284.46;;;22.04;34.93
62038;BME280;47991;42.974;12.082;2023-04-21T15:43:23;97288.02;;;21.78;35.20
62038;BME280;47991;42.974;12.082;2023-04-21T15:45:50;97292.21;;;21.95;36.03
62038;BME280;47991;42.974;12.082;2023-04-21T15:48:17;97291.73;;;22.20;36.10
62038;BME280;47991;42.974;12.082;2023-04-21T15:50:45;97291.15;;;22.32;35.96
62038;BME280;47991;42.974;12.082;2023-04-21T15:53:12;97289.98;;;22.39;35.87
62038;BME280;47991;42.974;12.082;2023-04-21T15:55:38;97293.94;;;22.35;35.72
62038;BME280;47991;42.974;12.082;2023-04-21T15:58:05;97294.64;;;22.29;35.45
62038;BME280;47991;42.974;12.082;2023-04-21T16:00:32;97297.99;;;22.21;35.91
62038;BME280;47991;42.974;12.082;2023-04-21T16:03:01;97298.87;;;22.03;35.86
62038;BME280;47991;42.974;12.082;2023-04-21T16:05:32;97302.47;;;21.97;36.11
62038;BME280;47991;42.974;12.082;2023-04-21T16:08:04;97301.34;;;22.00;36.05
62038;BME280;47991;42.974;12.082;2023-04-21T16:10:31;97302.73;;;21.89;36.32
62038;BME280;47991;42.974;12.082;2023-04-21T16:12:58;97297.55;;;21.73;36.42
62038;BME280;47991;42.974;12.082;2023-04-21T16:15:24;97305.55;;;21.45;36.93
62038;BME280;47991;42.974;12.082;2023-04-21T16:17:52;97310.05;;;21.13;37.33
62038;BME280;47991;42.974;12.082;2023-04-21T16:20:18;97314.31;;;20.84;37.74
62038;BME280;47991;42.974;12.082;2023-04-21T17:14:57;97358.34;;;17.37;46.87
62038;BME280;47991;42.974;12.082;2023-04-21T17:17:25;97359.73;;;17.23;47.35
62038;BME280;47991;42.974;12.082;2023-04-21T17:19:53;97363.90;;;17.14;47.12
62038;BME280;47991;42.974;12.082;2023-04-21T17:22:20;97368.86;;;17.17;47.00
62038;BME280;47991;42.974;12.082;2023-04-21T17:24:50;97371.00;;;17.11;46.86
62038;BME280;47991;42.974;12.082;2023-04-21T17:27:17;97373.52;;;17.02;47.48
62038;BME280;47991;42.974;12.082;2023-04-21T17:29:43;97374.73;;;16.91;47.08
62038;BME280;47991;42.974;12.082;2023-04-21T17:32:13;97377.58;;;16.82;47.75
62038;BME280;47991;42.974;12.082;2023-04-21T17:34:40;97378.64;;;16.73;47.98
62038;BME280;47991;42.974;12.082;2023-04-21T17:37:07;97377.95;;;16.69;47.35
62038;BME280;47991;42.974;12.082;2023-04-21T17:39:34;97378.33;;;16.66;47.76
62038;BME280;47991;42.974;12.082;2023-04-21T17:42:01;97379.89;;;16.64;47.33
62038;BME280;47991;42.974;12.082;2023-04-21T17:44:28;97384.76;;;16.63;47.54
62038;BME280;47991;42.974;12.082;2023-04-21T17:46:54;97386.41;;;16.59;47.77
62038;BME280;47991;42.974;12.082;2023-04-21T17:49:22;97390.66;;;16.59;47.37
62038;BME280;47991;42.974;12.082;2023-04-21T17:51:50;97391.79;;;16.62;47.11
62038;BME280;47991;42.974;12.082;2023-04-21T17:54:17;97391.06;;;16.65;47.38
62038;BME280;47991;42.974;12.082;2023-04-21T17:56:44;97391.95;;;16.65;47.38
62038;BME280;47991;42.974;12.082;2023-04-21T17:59:11;97393.84;;;16.60;47.77
62038;BME280;47991;42.974;12.082;2023-04-21T18:01:38;97393.27;;;16.55;47.45
62038;BME280;47991;42.974;12.082;2023-04-21T18:04:04;97390.79;;;16.52;47.46
62038;BME280;47991;42.974;12.082;2023-04-21T18:06:31;97397.23;;;16.45;48.93
62038;BME280;47991;42.974;12.082;2023-04-21T18:09:02;97399.45;;;16.34;49.38
62038;BME280;47991;42.974;12.082;2023-04-21T18:11:30;97404.77;;;16.28;48.85
62038;BME280;47991;42.974;12.082;2023-04-21T18:13:57;97405.42;;;16.20;49.27
62038;BME280;47991;42.974;12.082;2023-04-21T18:16:24;97411.52;;;16.19;48.72
62038;BME280;47991;42.974;12.082;2023-04-21T18:18:52;97412.33;;;16.18;49.21
62038;BME280;47991;42.974;12.082;2023-04-21T18:21:19;97421.02;;;16.16;49.09
62038;BME280;47991;42.974;12.082;2023-04-21T18:23:46;97423.52;;;16.09;49.13
62038;BME280;47991;42.974;12.082;2023-04-21T18:26:13;97421.52;;;16.01;49.38
62038;BME280;47991;42.974;12.082;2023-04-21T18:28:40;97421.88;;;15.94;49.63
62038;BME280;47991;42.974;12.082;2023-04-21T18:31:06;97423.96;;;15.92;49.74
62038;BME280;47991;42.974;12.082;2023-04-21T18:33:33;97426.05;;;15.83;50.09
62038;BME280;47991;42.974;12.082;2023-04-21T18:36:00;97423.71;;;15.77;49.55
62038;BME280;47991;42.974;12.082;2023-04-21T18:38:26;97425.15;;;15.73;50.04
62038;BME280;47991;42.974;12.082;2023-04-21T18:40:54;97428.88;;;15.66;50.07
62038;BME280;47991;42.974;12.082;2023-04-21T18:43:21;97432.29;;;15.56;50.68
62038;BME280;47991;42.974;12.082;2023-04-21T18:45:48;97431.85;;;15.44;50.60
62038;BME280;47991;42.974;12.082;2023-04-21T18:48:15;97434.14;;;15.28;51.14
62038;BME280;47991;42.974;12.082;2023-04-21T18:50:41;97433.73;;;15.18;51.54
62038;BME280;47991;42.974;12.082;2023-04-21T18:53:08;97435.54;;;14.97;51.95
62038;BME280;47991;42.974;12.082;2023-04-21T18:55:35;97434.42;;;14.81;52.09
62038;BME280;47991;42.974;12.082;2023-04-21T18:58:02;97433.48;;;14.64;52.13
62038;BME280;47991;42.974;12.082;2023-04-21T19:00:32;97433.67;;;14.48;52.46
62038;BME280;47991;42.974;12.082;2023-04-21T19:03:04;97433.64;;;14.31;54.10
62038;BME280;47991;42.974;12.082;2023-04-21T19:05:35;97440.15;;;14.18;53.15
62038;BME280;47991;42.974;12.082;2023-04-21T19:08:03;97443.73;;;14.10;53.23
62038;BME280;47991;42.974;12.082;2023-04-21T19:10:31;97445.67;;;14.03;53.45
62038;BME280;47991;42.974;12.082;2023-04-21T19:13:00;97453.29;;;13.99;53.44
62038;BME280;47991;42.974;12.082;2023-04-21T19:21:13;97474.06;;;13.77;55.27
62038;BME280;47991;42.974;12.082;2023-04-21T19:23:40;97470.66;;;13.66;55.21
62038;BME280;47991;42.974;12.082;2023-04-21T19:26:07;97472.52;;;13.52;55.37
62038;BME280;47991;42.974;12.082;2023-04-21T19:28:35;97474.57;;;13.37;55.80
62038;BME280;47991;42.974;12.082;2023-04-21T19:31:01;97477.30;;;13.24;55.58
62038;BME280;47991;42.974;12.082;2023-04-21T19:33:28;97474.16;;;13.10;56.07
62038;BME280;47991;42.974;12.082;2023-04-21T19:35:56;97478.05;;;12.93;56.81
62038;BME280;47991;42.974;12.082;2023-04-21T19:38:25;97482.64;;;12.77;58.35
62038;BME280;47991;42.974;12.082;2023-04-21T19:40:53;97483.10;;;12.62;58.46
62038;BME280;47991;42.974;12.082;2023-04-21T19:43:20;97486.56;;;12.60;57.62
62038;BME280;47991;42.974;12.082;2023-04-21T19:45:48;97487.57;;;12.56;58.19
62038;BME280;47991;42.974;12.082;2023-04-21T19:48:15;97487.23;;;12.48;58.05
62038;BME280;47991;42.974;12.082;2023-04-21T19:50:41;97492.58;;;12.33;58.85
62038;BME280;47991;42.974;12.082;2023-04-21T19:53:08;97493.70;;;12.23;59.48
62038;BME280;47991;42.974;12.082;2023-04-21T19:55:43;97490.23;;;12.16;59.19
62038;BME280;47991;42.974;12.082;2023-04-21T19:58:12;97493.83;;;12.10;59.14
62038;BME280;47991;42.974;12.082;2023-04-21T20:00:39;97491.95;;;12.04;59.18
62038;BME280;47991;42.974;12.082;2023-04-21T20:03:07;97497.43;;;11.99;59.78
62038;BME280;47991;42.974;12.082;2023-04-21T20:05:36;97501.15;;;11.90;60.15
62038;BME280;47991;42.974;12.082;2023-04-21T20:08:03;97500.27;;;11.80;60.72
62038;BME280;47991;42.974;12.082;2023-04-21T20:10:30;97496.42;;;11.73;60.63
62038;BME280;47991;42.974;12.082;2023-04-21T20:12:57;97497.25;;;11.66;60.74
62038;BME280;47991;42.974;12.082;2023-04-21T20:15:24;97494.52;;;11.64;60.39
62038;BME280;47991;42.974;12.082;2023-04-21T20:17:52;97494.08;;;11.56;60.42
62038;BME280;47991;42.974;12.082;2023-04-21T20:20:19;97496.89;;;11.51;61.12
62038;BME280;47991;42.974;12.082;2023-04-21T20:22:45;97494.93;;;11.47;61.86
62038;BME280;47991;42.974;12.082;2023-04-21T20:25:13;97493.88;;;11.42;62.32
62038;BME280;47991;42.974;12.082;2023-04-21T20:27:40;97492.73;;;11.34;62.60
62038;BME280;47991;42.974;12.082;2023-04-21T20:30:07;97493.70;;;11.27;62.98
62038;BME280;47991;42.974;12.082;2023-04-21T20:32:34;97495.79;;;11.23;62.73
62038;BME280;47991;42.974;12.082;2023-04-21T20:35:01;97496.67;;;11.13;62.70
62038;BME280;47991;42.974;12.082;2023-04-21T20:37:31;97499.29;;;11.09;62.58
62038;BME280;47991;42.974;12.082;2023-04-21T20:39:59;97498.39;;;11.09;62.29
62038;BME280;47991;42.974;12.082;2023-04-21T20:42:56;97497.40;;;11.07;62.41
62038;BME280;47991;42.974;12.082;2023-04-21T20:45:22;97499.20;;;10.96;62.60
62038;BME280;47991;42.974;12.082;2023-04-21T20:47:49;97498.65;;;10.86;62.89
62038;BME280;47991;42.974;12.082;2023-04-21T20:50:16;97500.99;;;10.74;63.03
62038;BME280;47991;42.974;12.082;2023-04-21T20:52:42;97500.52;;;10.67;63.72
62038;BME280;47991;42.974;12.082;2023-04-21T20:55:09;97500.68;;;10.62;63.77
62038;BME280;47991;42.974;12.082;2023-04-21T20:57:36;97509.08;;;10.54;63.80
62038;BME280;47991;42.974;12.082;2023-04-21T21:00:07;97511.94;;;10.53;63.93
62038;BME280;47991;42.974;12.082;2023-04-21T21:02:36;97513.81;;;10.44;64.18
62038;BME280;47991;42.974;12.082;2023-04-21T21:05:03;97522.66;;;10.38;64.57
62038;BME280;47991;42.974;12.082;2023-04-21T21:07:30;97529.64;;;10.35;65.32
62038;BME280;47991;42.974;12.082;2023-04-21T21:09:56;97529.10;;;10.35;65.70
62038;BME280;47991;42.974;12.082;2023-04-21T21:12:23;97527.27;;;10.31;65.71
62038;BME280;47991;42.974;12.082;2023-04-21T21:14:50;97526.95;;;10.29;65.91
62038;BME280;47991;42.974;12.082;2023-04-21T21:17:16;97532.45;;;10.29;65.73
62038;BME280;47991;42.974;12.082;2023-04-21T21:19:43;97534.00;;;10.30;65.57
62038;BME280;47991;42.974;12.082;2023-04-21T22:10:15;97551.56;;;9.29;68.09
62038;BME280;47991;42.974;12.082;2023-04-21T22:12:42;97552.41;;;9.30;68.91
62038;BME280;47991;42.974;12.082;2023-04-21T22:15:09;97552.02;;;9.32;68.75
62038;BME280;47991;42.974;12.082;2023-04-21T22:17:40;97555.62;;;9.35;68.85
62038;BME280;47991;42.974;12.082;2023-04-21T22:20:09;97560.34;;;9.37;68.77
62038;BME280;47991;42.974;12.082;2023-04-21T22:22:37;97564.30;;;9.34;68.41
62038;BME280;47991;42.974;12.082;2023-04-21T22:25:04;97568.11;;;9.30;68.24
62038;BME280;47991;42.974;12.082;2023-04-21T22:27:31;97573.25;;;9.22;69.47
62038;BME280;47991;42.974;12.082;2023-04-21T22:29:59;97574.79;;;9.11;69.81
62038;BME280;47991;42.974;12.082;2023-04-21T22:32:29;97574.77;;;9.04;70.30
62038;BME280;47991;42.974;12.082;2023-04-21T22:34:58;97577.90;;;8.99;70.16
62038;BME280;47991;42.974;12.082;2023-04-21T22:37:25;97579.79;;;8.94;70.34
62038;BME280;47991;42.974;12.082;2023-04-21T22:39:52;97579.83;;;8.93;70.17
62038;BME280;47991;42.974;12.082;2023-04-21T22:42:20;97579.23;;;8.89;70.35
62038;BME280;47991;42.974;12.082;2023-04-21T22:44:47;97582.50;;;8.84;70.82
62038;BME280;47991;42.974;12.082;2023-04-21T22:47:13;97585.83;;;8.85;70.81
62038;BME280;47991;42.974;12.082;2023-04-21T22:49:40;97584.33;;;8.89;70.83
62038;BME280;47991;42.974;12.082;2023-04-21T22:52:11;97581.81;;;8.84;70.35
62038;BME280;47991;42.974;12.082;2023-04-21T22:54:38;97583.89;;;8.78;70.23
62038;BME280;47991;42.974;12.082;2023-04-21T22:57:06;97585.58;;;8.74;70.91
62038;BME280;47991;42.974;12.082;2023-04-21T22:59:34;97583.88;;;8.78;71.31
62038;BME280;47991;42.974;12.082;2023-04-21T23:02:03;97584.63;;;8.84;70.70
62038;BME280;47991;42.974;12.082;2023-04-21T23:04:35;97584.75;;;8.78;70.69
62038;BME280;47991;42.974;12.082;2023-04-21T23:07:06;97587.38;;;8.65;71.55
62038;BME280;47991;42.974;12.082;2023-04-21T23:09:33;97585.27;;;8.56;72.16
62038;BME280;47991;42.974;12.082;2023-04-21T23:12:00;97581.91;;;8.57;72.00
62038;BME280;47991;42.974;12.082;2023-04-21T23:14:27;97585.73;;;8.59;72.76
62038;BME280;47991;42.974;12.082;2023-04-21T23:16:57;97583.30;;;8.50;71.89
62038;BME280;47991;42.974;12.082;2023-04-21T23:19:25;97584.89;;;8.41;71.90
62038;BME280;47991;42.974;12.082;2023-04-21T23:21:52;97580.11;;;8.43;72.41
62038;BME280;47991;42.974;12.082;2023-04-21T23:24:18;97576.88;;;8.46;72.89